sensor_id;sensor_type;location;lat;lon;timestamp;P1;durP1;ratioP1;P2;durP2;ratioP2
18224;SDS011;9237;48.590;8.854;2023-08-17T00:01:52;0.53;;;0.53;;
18224;SDS011;9237;48.590;8.854;2023-08-17T00:04:19;0.60;;;0.60;;
18224;SDS011;9237;48.590;8.854;2023-08-17T00:06:46;0.50;;;0.50;;
18224;SDS011;9237;48.590;8.854;2023-08-17T00:09:13;0.60;;;0.60;;
18224;SDS011;9237;48.590;8.854;2023-08-17T00:11:39;0.57;;;0.57;;
18224;SDS011;9237;48.590;8.854;2023-08-17T00:14:08;0.60;;;0.60;;
18224;SDS011;9237;48.590;8.854;2023-08-17T00:16:35;0.60;;;0.60;;
18224;SDS011;9237;48.590;8.854;2023-08-17T00:19:02;0.60;;;0.60;;
18224;SDS011;9237;48.590;8.854;2023-08-17T00:21:28;0.70;;;0.70;;
18224;SDS011;9237;48.590;8.854;2023-08-17T00:23:55;0.60;;;0.60;;
18224;SDS011;9237;48.590;8.854;2023-08-17T00:26:22;0.60;;;0.60;;
18224;SDS011;9237;48.590;8.854;2023-08-17T00:28:49;0.60;;;0.60;;
18224;SDS011;9237;48.590;8.854;2023-08-17T00:31:18;0.60;;;0.60;;
18224;SDS011;9237;48.590;8.854;2023-08-17T00:33:44;0.60;;;0.60;;
18224;SDS011;9237;48.590;8.854;2023-08-17T00:36:11;0.60;;;0.60;;
18224;SDS011;9237;48.590;8.854;2023-08-17T00:38:38;0.70;;;0.70;;
18224;SDS011;9237;48.590;8.854;2023-08-17T00:41:05;0.63;;;0.63;;
18224;SDS011;9237;48.590;8.854;2023-08-17T00:43:32;0.60;;;0.60;;
18224;SDS011;9237;48.590;8.854;2023-08-17T00:45:59;0.60;;;0.60;;
18224;SDS011;9237;48.590;8.854;2023-08-17T00:48:27;0.60;;;0.60;;
18224;SDS011;9237;48.590;8.854;2023-08-17T00:50:55;0.60;;;0.60;;
18224;SDS011;9237;48.590;8.854;2023-08-17T00:53:23;0.60;;;0.60;;
18224;SDS011;9237;48.590;8.854;2023-08-17T00:55:53;0.60;;;0.60;;
18224;SDS011;9237;48.590;8.854;2023-08-17T00:58:20;0.60;;;0.60;;
18224;SDS011;9237;48.590;8.854;2023-08-17T01:00:47;0.70;;;0.70;;
18224;SDS011;9237;48.590;8.854;2023-08-17T01:03:15;0.60;;;0.60;;
18224;SDS011;9237;48.590;8.854;2023-08-17T01:05:44;0.60;;;0.60;;
18224;SDS011;9237;48.590;8.854;2023-08-17T01:08:11;0.50;;;0.50;;
18224;SDS011;9237;48.590;8.854;2023-08-17T01:10:40;0.60;;;0.60;;
18224;SDS011;9237;48.590;8.854;2023-08-17T01:13:14;0.60;;;0.60;;
18224;SDS011;9237;48.590;8.854;2023-08-17T01:15:45;0.60;;;0.60;;
18224;SDS011;9237;48.590;8.854;2023-08-17T01:18:17;0.60;;;0.60;;
18224;SDS011;9237;48.590;8.854;2023-08-17T01:20:50;0.60;;;0.60;;
18224;SDS011;9237;48.590;8.854;2023-08-17T01:23:21;0.60;;;0.60;;
18224;SDS011;9237;48.590;8.854;2023-08-17T01:25:48;0.60;;;0.60;;
18224;SDS011;9237;48.590;8.854;2023-08-17T01:28:15;0.60;;;0.60;;
18224;SDS011;9237;48.590;8.854;2023-08-17T01:30:44;0.60;;;0.60;;
18224;SDS011;9237;48.590;8.854;2023-08-17T01:33:13;0.60;;;0.60;;
18224;SDS011;9237;48.590;8.854;2023-08-17T01:35:48;0.60;;;0.60;;
18224;SDS011;9237;48.590;8.854;2023-08-17T01:38:21;0.60;;;0.60;;
18224;SDS011;9237;48.590;8.854;2023-08-17T01:40:50;0.60;;;0.60;;
18224;SDS011;9237;48.590;8.854;2023-08-17T01:43:19;0.60;;;0.60;;
18224;SDS011;9237;48.590;8.854;2023-08-17T01:45:46;0.60;;;0.60;;
18224;SDS011;9237;48.590;8.854;2023-08-17T01:48:13;0.60;;;0.60;;
18224;SDS011;9237;48.590;8.854;2023-08-17T01:50:40;0.60;;;0.60;;
18224;SDS011;9237;48.590;8.854;2023-08-17T01:53:07;0.60;;;0.60;;
18224;SDS011;9237;48.590;8.854;2023-08-17T01:55:36;0.60;;;0.60;;
18224;SDS011;9237;48.590;8.854;2023-08-17T01:58:03;0.60;;;0.60;;
18224;SDS011;9237;48.590;8.854;2023-08-17T02:00:29;0.60;;;0.60;;
18224;SDS011;9237;48.590;8.854;2023-08-17T02:02:56;0.60;;;0.60;;
18224;SDS011;9237;48.590;8.854;2023-08-17T02:05:23;0.63;;;0.63;;
18224;SDS011;9237;48.590;8.854;2023-08-17T02:07:50;0.60;;;0.60;;
18224;SDS011;9237;48.590;8.854;2023-08-17T02:10:17;0.60;;;0.60;;
18224;SDS011;9237;48.590;8.854;2023-08-17T02:12:45;0.60;;;0.60;;
18224;SDS011;9237;48.590;8.854;2023-08-17T02:15:12;0.60;;;0.60;;
18224;SDS011;9237;48.590;8.854;2023-08-17T02:17:39;0.60;;;0.60;;
18224;SDS011;9237;48.590;8.854;2023-08-17T02:20:06;0.60;;;0.60;;
18224;SDS011;9237;48.590;8.854;2023-08-17T02:22:33;0.60;;;0.60;;
18224;SDS011;9237;48.590;8.854;2023-08-17T02:25:00;0.60;;;0.60;;
18224;SDS011;9237;48.590;8.854;2023-08-17T02:27:27;0.60;;;0.60;;
18224;SDS011;9237;48.590;8.854;2023-08-17T02:29:57;0.60;;;0.60;;
18224;SDS011;9237;48.590;8.854;2023-08-17T02:32:24;0.60;;;0.60;;
18224;SDS011;9237;48.590;8.854;2023-08-17T02:34:51;0.60;;;0.60;;
18224;SDS011;9237;48.590;8.854;2023-08-17T02:37:17;0.60;;;0.60;;
18224;SDS011;9237;48.590;8.854;2023-08-17T02:39:44;0.60;;;0.60;;
18224;SDS011;9237;48.590;8.854;2023-08-17T02:42:11;0.60;;;0.60;;
18224;SDS011;9237;48.590;8.854;2023-08-17T02:44:38;0.60;;;0.60;;
18224;SDS011;9237;48.590;8.854;2023-08-17T02:47:06;0.60;;;0.60;;
18224;SDS011;9237;48.590;8.854;2023-08-17T02:49:33;0.50;;;0.50;;
18224;SDS011;9237;48.590;8.854;2023-08-17T02:52:00;0.60;;;0.60;;
18224;SDS011;9237;48.590;8.854;2023-08-17T02:54:27;0.60;;;0.60;;
18224;SDS011;9237;48.590;8.854;2023-08-17T02:56:54;0.60;;;0.60;;
18224;SDS011;9237;48.590;8.854;2023-08-17T02:59:20;0.60;;;0.60;;
18224;SDS011;9237;48.590;8.854;2023-08-17T03:01:47;0.60;;;0.60;;
18224;SDS011;9237;48.590;8.854;2023-08-17T03:04:15;0.60;;;0.60;;
18224;SDS011;9237;48.590;8.854;2023-08-17T03:06:42;0.60;;;0.60;;
18224;SDS011;9237;48.590;8.854;2023-08-17T03:09:09;0.60;;;0.60;;
18224;SDS011;9237;48.590;8.854;2023-08-17T03:11:36;0.60;;;0.60;;
18224;SDS011;9237;48.590;8.854;2023-08-17T03:14:02;0.60;;;0.60;;
18224;SDS011;9237;48.590;8.854;2023-08-17T03:16:29;0.60;;;0.60;;
18224;SDS011;9237;48.590;8.854;2023-08-17T03:18:56;0.60;;;0.60;;
18224;SDS011;9237;48.590;8.854;2023-08-17T03:21:24;0.60;;;0.60;;
18224;SDS011;9237;48.590;8.854;2023-08-17T03:23:51;0.60;;;0.60;;
18224;SDS011;9237;48.590;8.854;2023-08-17T03:26:18;0.60;;;0.60;;
18224;SDS011;9237;48.590;8.854;2023-08-17T03:28:45;0.60;;;0.60;;
18224;SDS011;9237;48.590;8.854;2023-08-17T03:31:11;0.60;;;0.60;;
18224;SDS011;9237;48.590;8.854;2023-08-17T03:33:38;0.60;;;0.60;;
18224;SDS011;9237;48.590;8.854;2023-08-17T03:36:06;0.60;;;0.60;;
18224;SDS011;9237;48.590;8.854;2023-08-17T03:38:34;0.60;;;0.60;;
18224;SDS011;9237;48.590;8.854;2023-08-17T03:41:02;0.50;;;0.50;;
18224;SDS011;9237;48.590;8.854;2023-08-17T03:43:30;0.60;;;0.60;;
18224;SDS011;9237;48.590;8.854;2023-08-17T03:45:57;0.60;;;0.60;;
18224;SDS011;9237;48.590;8.854;2023-08-17T03:48:24;0.60;;;0.60;;
18224;SDS011;9237;48.590;8.854;2023-08-17T03:50:51;0.60;;;0.60;;
18224;SDS011;9237;48.590;8.854;2023-08-17T03:53:18;0.60;;;0.60;;
18224;SDS011;9237;48.590;8.854;2023-08-17T03:55:47;0.60;;;0.60;;
18224;SDS011;9237;48.590;8.854;2023-08-17T03:58:13;0.60;;;0.60;;
18224;SDS011;9237;48.590;8.854;2023-08-17T04:00:40;0.60;;;0.60;;
18224;SDS011;9237;48.590;8.854;2023-08-17T04:03:08;0.60;;;0.60;;
18224;SDS011;9237;48.590;8.854;2023-08-17T04:05:34;0.60;;;0.60;;
18224;SDS011;9237;48.590;8.854;2023-08-17T04:08:01;0.60;;;0.60;;
18224;SDS011;9237;48.590;8.854;2023-08-17T04:10:28;0.60;;;0.60;;
18224;SDS011;9237;48.590;8.854;2023-08-17T04:12:57;0.60;;;0.60;;
18224;SDS011;9237;48.590;8.854;2023-08-17T04:15:23;0.60;;;0.60;;
18224;SDS011;9237;48.590;8.854;2023-08-17T04:17:50;0.60;;;0.60;;
18224;SDS011;9237;48.590;8.854;2023-08-17T04:20:17;0.60;;;0.60;;
18224;SDS011;9237;48.590;8.854;2023-08-17T04:22:44;0.60;;;0.60;;
18224;SDS011;9237;48.590;8.854;2023-08-17T04:25:11;0.60;;;0.60;;
18224;SDS011;9237;48.590;8.854;2023-08-17T04:27:38;0.60;;;0.60;;
18224;SDS011;9237;48.590;8.854;2023-08-17T04:30:08;0.60;;;0.60;;
18224;SDS011;9237;48.590;8.854;2023-08-17T04:32:36;0.60;;;0.60;;
18224;SDS011;9237;48.590;8.854;2023-08-17T04:35:03;0.60;;;0.60;;
18224;SDS011;9237;48.590;8.854;2023-08-17T04:37:30;0.60;;;0.60;;
18224;SDS011;9237;48.590;8.854;2023-08-17T04:39:57;0.60;;;0.60;;
18224;SDS011;9237;48.590;8.854;2023-08-17T04:42:23;0.60;;;0.60;;
18224;SDS011;9237;48.590;8.854;2023-08-17T04:44:50;0.60;;;0.60;;
18224;SDS011;9237;48.590;8.854;2023-08-17T04:47:19;0.50;;;0.50;;
18224;SDS011;9237;48.590;8.854;2023-08-17T04:49:46;0.60;;;0.60;;
18224;SDS011;9237;48.590;8.854;2023-08-17T04:52:13;0.67;;;0.67;;
18224;SDS011;9237;48.590;8.854;2023-08-17T04:54:39;0.60;;;0.60;;
18224;SDS011;9237;48.590;8.854;2023-08-17T04:57:06;0.60;;;0.60;;
18224;SDS011;9237;48.590;8.854;2023-08-17T04:59:33;0.60;;;0.60;;
18224;SDS011;9237;48.590;8.854;2023-08-17T05:02:00;0.63;;;0.63;;
18224;SDS011;9237;48.590;8.854;2023-08-17T05:04:29;0.60;;;0.60;;
18224;SDS011;9237;48.590;8.854;2023-08-17T05:06:56;0.53;;;0.53;;
18224;SDS011;9237;48.590;8.854;2023-08-17T05:09:23;0.60;;;0.60;;
18224;SDS011;9237;48.590;8.854;2023-08-17T05:11:49;0.60;;;0.60;;
18224;SDS011;9237;48.590;8.854;2023-08-17T05:14:16;0.60;;;0.60;;
18224;SDS011;9237;48.590;8.854;2023-08-17T05:16:43;0.70;;;0.70;;
18224;SDS011;9237;48.590;8.854;2023-08-17T05:19:10;0.60;;;0.60;;
18224;SDS011;9237;48.590;8.854;2023-08-17T05:21:38;0.60;;;0.60;;
18224;SDS011;9237;48.590;8.854;2023-08-17T05:24:05;0.60;;;0.60;;
18224;SDS011;9237;48.590;8.854;2023-08-17T05:26:32;0.60;;;0.60;;
18224;SDS011;9237;48.590;8.854;2023-08-17T05:28:58;0.60;;;0.60;;
18224;SDS011;9237;48.590;8.854;2023-08-17T05:31:25;0.60;;;0.60;;
18224;SDS011;9237;48.590;8.854;2023-08-17T05:33:52;0.60;;;0.60;;
18224;SDS011;9237;48.590;8.854;2023-08-17T05:36:19;0.53;;;0.53;;
18224;SDS011;9237;48.590;8.854;2023-08-17T05:38:47;0.60;;;0.60;;
18224;SDS011;9237;48.590;8.854;2023-08-17T05:41:14;0.60;;;0.60;;
18224;SDS011;9237;48.590;8.854;2023-08-17T05:43:42;0.60;;;0.60;;
18224;SDS011;9237;48.590;8.854;2023-08-17T05:46:09;0.60;;;0.60;;
18224;SDS011;9237;48.590;8.854;2023-08-17T05:48:36;0.60;;;0.60;;
18224;SDS011;9237;48.590;8.854;2023-08-17T05:51:02;0.60;;;0.60;;
18224;SDS011;9237;48.590;8.854;2023-08-17T05:53:29;0.60;;;0.60;;
18224;SDS011;9237;48.590;8.854;2023-08-17T05:55:57;0.60;;;0.60;;
18224;SDS011;9237;48.590;8.854;2023-08-17T05:58:24;0.60;;;0.60;;
18224;SDS011;9237;48.590;8.854;2023-08-17T06:00:51;0.60;;;0.60;;
18224;SDS011;9237;48.590;8.854;2023-08-17T06:03:17;0.57;;;0.57;;
18224;SDS011;9237;48.590;8.854;2023-08-17T06:05:44;0.60;;;0.60;;
18224;SDS011;9237;48.590;8.854;2023-08-17T06:08:11;0.60;;;0.60;;
18224;SDS011;9237;48.590;8.854;2023-08-17T06:10:38;0.60;;;0.60;;
18224;SDS011;9237;48.590;8.854;2023-08-17T06:13:06;0.60;;;0.60;;
18224;SDS011;9237;48.590;8.854;2023-08-17T06:15:33;0.60;;;0.60;;
18224;SDS011;9237;48.590;8.854;2023-08-17T06:18:00;0.70;;;0.70;;
18224;SDS011;9237;48.590;8.854;2023-08-17T06:20:27;0.60;;;0.60;;
18224;SDS011;9237;48.590;8.854;2023-08-17T06:22:54;0.50;;;0.50;;
18224;SDS011;9237;48.590;8.854;2023-08-17T06:25:21;0.50;;;0.50;;
18224;SDS011;9237;48.590;8.854;2023-08-17T06:27:48;0.50;;;0.50;;
18224;SDS011;9237;48.590;8.854;2023-08-17T06:30:17;0.50;;;0.50;;
18224;SDS011;9237;48.590;8.854;2023-08-17T06:32:44;0.50;;;0.50;;
18224;SDS011;9237;48.590;8.854;2023-08-17T06:35:10;0.50;;;0.50;;
18224;SDS011;9237;48.590;8.854;2023-08-17T06:37:37;0.50;;;0.50;;
18224;SDS011;9237;48.590;8.854;2023-08-17T06:40:04;0.50;;;0.50;;
18224;SDS011;9237;48.590;8.854;2023-08-17T06:42:34;0.50;;;0.50;;
18224;SDS011;9237;48.590;8.854;2023-08-17T06:45:01;0.50;;;0.50;;
18224;SDS011;9237;48.590;8.854;2023-08-17T06:47:30;0.50;;;0.50;;
18224;SDS011;9237;48.590;8.854;2023-08-17T06:49:57;0.50;;;0.50;;
18224;SDS011;9237;48.590;8.854;2023-08-17T06:52:23;0.50;;;0.50;;
18224;SDS011;9237;48.590;8.854;2023-08-17T06:54:50;0.40;;;0.40;;
18224;SDS011;9237;48.590;8.854;2023-08-17T06:57:17;0.50;;;0.50;;
18224;SDS011;9237;48.590;8.854;2023-08-17T06:59:46;0.50;;;0.50;;
18224;SDS011;9237;48.590;8.854;2023-08-17T07:02:13;0.60;;;0.60;;
18224;SDS011;9237;48.590;8.854;2023-08-17T07:04:41;0.50;;;0.50;;
18224;SDS011;9237;48.590;8.854;2023-08-17T07:07:08;0.50;;;0.50;;
18224;SDS011;9237;48.590;8.854;2023-08-17T07:09:35;0.47;;;0.47;;
18224;SDS011;9237;48.590;8.854;2023-08-17T07:12:02;0.50;;;0.50;;
18224;SDS011;9237;48.590;8.854;2023-08-17T07:14:29;0.50;;;0.50;;
18224;SDS011;9237;48.590;8.854;2023-08-17T07:16:56;0.50;;;0.50;;
18224;SDS011;9237;48.590;8.854;2023-08-17T07:19:22;0.50;;;0.50;;
18224;SDS011;9237;48.590;8.854;2023-08-17T07:21:50;0.50;;;0.50;;
18224;SDS011;9237;48.590;8.854;2023-08-17T07:24:18;0.50;;;0.50;;
18224;SDS011;9237;48.590;8.854;2023-08-17T07:26:45;0.50;;;0.50;;
18224;SDS011;9237;48.590;8.854;2023-08-17T07:29:12;0.50;;;0.50;;
18224;SDS011;9237;48.590;8.854;2023-08-17T07:31:39;0.50;;;0.50;;
18224;SDS011;9237;48.590;8.854;2023-08-17T07:34:06;0.50;;;0.50;;
18224;SDS011;9237;48.590;8.854;2023-08-17T07:36:33;0.50;;;0.50;;
18224;SDS011;9237;48.590;8.854;2023-08-17T07:39:01;0.40;;;0.40;;
18224;SDS011;9237;48.590;8.854;2023-08-17T07:41:28;0.40;;;0.40;;
18224;SDS011;9237;48.590;8.854;2023-08-17T07:43:55;0.40;;;0.40;;
18224;SDS011;9237;48.590;8.854;2023-08-17T07:46:22;0.40;;;0.40;;
18224;SDS011;9237;48.590;8.854;2023-08-17T07:48:48;0.40;;;0.40;;
18224;SDS011;9237;48.590;8.854;2023-08-17T07:51:15;0.43;;;0.43;;
18224;SDS011;9237;48.590;8.854;2023-08-17T07:53:42;0.50;;;0.50;;
18224;SDS011;9237;48.590;8.854;2023-08-17T07:56:10;0.43;;;0.43;;
18224;SDS011;9237;48.590;8.854;2023-08-17T07:58:37;0.40;;;0.40;;
18224;SDS011;9237;48.590;8.854;2023-08-17T08:01:04;0.50;;;0.50;;
18224;SDS011;9237;48.590;8.854;2023-08-17T08:03:30;0.43;;;0.43;;
18224;SDS011;9237;48.590;8.854;2023-08-17T08:05:58;0.60;;;0.60;;
18224;SDS011;9237;48.590;8.854;2023-08-17T08:08:25;0.45;;;0.45;;
18224;SDS011;9237;48.590;8.854;2023-08-17T08:10:52;0.50;;;0.50;;
18224;SDS011;9237;48.590;8.854;2023-08-17T08:13:21;0.50;;;0.50;;
18224;SDS011;9237;48.590;8.854;2023-08-17T08:15:48;0.50;;;0.50;;
18224;SDS011;9237;48.590;8.854;2023-08-17T08:18:15;0.50;;;0.50;;
18224;SDS011;9237;48.590;8.854;2023-08-17T08:20:42;0.50;;;0.50;;
18224;SDS011;9237;48.590;8.854;2023-08-17T08:23:08;0.50;;;0.50;;
18224;SDS011;9237;48.590;8.854;2023-08-17T08:25:35;0.50;;;0.50;;
18224;SDS011;9237;48.590;8.854;2023-08-17T08:28:02;0.40;;;0.40;;
18224;SDS011;9237;48.590;8.854;2023-08-17T08:30:30;0.40;;;0.40;;
18224;SDS011;9237;48.590;8.854;2023-08-17T08:32:57;0.50;;;0.50;;
18224;SDS011;9237;48.590;8.854;2023-08-17T08:35:25;0.50;;;0.50;;
18224;SDS011;9237;48.590;8.854;2023-08-17T08:37:51;0.50;;;0.50;;
18224;SDS011;9237;48.590;8.854;2023-08-17T08:40:20;0.40;;;0.40;;
18224;SDS011;9237;48.590;8.854;2023-08-17T08:42:54;0.45;;;0.45;;
18224;SDS011;9237;48.590;8.854;2023-08-17T08:45:21;0.50;;;0.50;;
18224;SDS011;9237;48.590;8.854;2023-08-17T08:47:50;0.40;;;0.40;;
18224;SDS011;9237;48.590;8.854;2023-08-17T08:50:18;0.50;;;0.50;;
18224;SDS011;9237;48.590;8.854;2023-08-17T08:52:49;0.40;;;0.40;;
18224;SDS011;9237;48.590;8.854;2023-08-17T08:55:20;0.40;;;0.40;;
18224;SDS011;9237;48.590;8.854;2023-08-17T08:57:49;0.50;;;0.50;;
18224;SDS011;9237;48.590;8.854;2023-08-17T09:00:18;0.40;;;0.40;;
18224;SDS011;9237;48.590;8.854;2023-08-17T09:02:45;0.40;;;0.40;;
18224;SDS011;9237;48.590;8.854;2023-08-17T09:05:13;0.40;;;0.40;;
18224;SDS011;9237;48.590;8.854;2023-08-17T09:07:41;0.40;;;0.40;;
18224;SDS011;9237;48.590;8.854;2023-08-17T09:10:09;0.40;;;0.40;;
18224;SDS011;9237;48.590;8.854;2023-08-17T09:12:36;0.30;;;0.30;;
18224;SDS011;9237;48.590;8.854;2023-08-17T09:15:03;0.30;;;0.30;;
18224;SDS011;9237;48.590;8.854;2023-08-17T09:17:34;0.30;;;0.30;;
18224;SDS011;9237;48.590;8.854;2023-08-17T09:20:01;0.40;;;0.40;;
18224;SDS011;9237;48.590;8.854;2023-08-17T09:22:38;0.30;;;0.30;;
18224;SDS011;9237;48.590;8.854;2023-08-17T09:25:06;0.30;;;0.30;;
18224;SDS011;9237;48.590;8.854;2023-08-17T09:27:34;0.30;;;0.30;;
18224;SDS011;9237;48.590;8.854;2023-08-17T09:30:01;0.35;;;0.35;;
18224;SDS011;9237;48.590;8.854;2023-08-17T09:32:29;0.30;;;0.30;;
18224;SDS011;9237;48.590;8.854;2023-08-17T09:34:56;0.30;;;0.30;;
18224;SDS011;9237;48.590;8.854;2023-08-17T09:37:23;0.30;;;0.30;;
18224;SDS011;9237;48.590;8.854;2023-08-17T09:39:54;0.30;;;0.30;;
18224;SDS011;9237;48.590;8.854;2023-08-17T09:42:21;0.30;;;0.30;;
18224;SDS011;9237;48.590;8.854;2023-08-17T09:44:48;0.30;;;0.30;;
18224;SDS011;9237;48.590;8.854;2023-08-17T09:47:15;0.30;;;0.30;;
18224;SDS011;9237;48.590;8.854;2023-08-17T09:49:47;0.30;;;0.30;;
18224;SDS011;9237;48.590;8.854;2023-08-17T09:52:14;0.30;;;0.30;;
18224;SDS011;9237;48.590;8.854;2023-08-17T09:54:41;0.30;;;0.30;;
18224;SDS011;9237;48.590;8.854;2023-08-17T09:57:10;0.30;;;0.30;;
18224;SDS011;9237;48.590;8.854;2023-08-17T09:59:37;0.30;;;0.30;;
18224;SDS011;9237;48.590;8.854;2023-08-17T10:02:04;0.30;;;0.30;;
18224;SDS011;9237;48.590;8.854;2023-08-17T10:04:40;0.30;;;0.30;;
18224;SDS011;9237;48.590;8.854;2023-08-17T10:07:07;0.25;;;0.25;;
18224;SDS011;9237;48.590;8.854;2023-08-17T10:09:38;0.20;;;0.20;;
18224;SDS011;9237;48.590;8.854;2023-08-17T10:12:10;0.22;;;0.22;;
18224;SDS011;9237;48.590;8.854;2023-08-17T10:14:42;0.20;;;0.20;;
18224;SDS011;9237;48.590;8.854;2023-08-17T10:17:19;0.20;;;0.20;;
18224;SDS011;9237;48.590;8.854;2023-08-17T10:19:52;0.20;;;0.20;;
18224;SDS011;9237;48.590;8.854;2023-08-17T10:22:23;0.30;;;0.30;;
18224;SDS011;9237;48.590;8.854;2023-08-17T10:24:55;0.20;;;0.20;;
18224;SDS011;9237;48.590;8.854;2023-08-17T10:27:25;0.20;;;0.20;;
18224;SDS011;9237;48.590;8.854;2023-08-17T10:29:52;0.20;;;0.20;;
18224;SDS011;9237;48.590;8.854;2023-08-17T10:32:20;0.20;;;0.20;;
18224;SDS011;9237;48.590;8.854;2023-08-17T10:34:48;0.20;;;0.20;;
18224;SDS011;9237;48.590;8.854;2023-08-17T10:37:16;0.20;;;0.20;;
18224;SDS011;9237;48.590;8.854;2023-08-17T10:39:44;0.17;;;0.17;;
18224;SDS011;9237;48.590;8.854;2023-08-17T10:42:12;0.20;;;0.20;;
18224;SDS011;9237;48.590;8.854;2023-08-17T10:44:43;0.20;;;0.20;;
18224;SDS011;9237;48.590;8.854;2023-08-17T10:47:20;0.20;;;0.20;;
18224;SDS011;9237;48.590;8.854;2023-08-17T10:49:48;0.20;;;0.20;;
18224;SDS011;9237;48.590;8.854;2023-08-17T10:52:18;0.20;;;0.20;;
18224;SDS011;9237;48.590;8.854;2023-08-17T10:54:55;0.20;;;0.20;;
18224;SDS011;9237;48.590;8.854;2023-08-17T10:57:27;0.20;;;0.20;;
18224;SDS011;9237;48.590;8.854;2023-08-17T11:00:11;0.20;;;0.20;;
18224;SDS011;9237;48.590;8.854;2023-08-17T11:02:42;0.20;;;0.20;;
18224;SDS011;9237;48.590;8.854;2023-08-17T11:05:10;0.20;;;0.20;;
18224;SDS011;9237;48.590;8.854;2023-08-17T11:07:38;0.20;;;0.20;;
18224;SDS011;9237;48.590;8.854;2023-08-17T11:10:13;0.20;;;0.20;;
18224;SDS011;9237;48.590;8.854;2023-08-17T11:12:53;0.20;;;0.20;;
18224;SDS011;9237;48.590;8.854;2023-08-17T11:15:23;0.20;;;0.20;;
18224;SDS011;9237;48.590;8.854;2023-08-17T11:17:50;0.20;;;0.20;;
18224;SDS011;9237;48.590;8.854;2023-08-17T11:20:17;0.20;;;0.20;;
18224;SDS011;9237;48.590;8.854;2023-08-17T11:22:45;0.20;;;0.20;;
18224;SDS011;9237;48.590;8.854;2023-08-17T11:25:12;0.15;;;0.15;;
18224;SDS011;9237;48.590;8.854;2023-08-17T11:27:39;0.20;;;0.20;;
18224;SDS011;9237;48.590;8.854;2023-08-17T11:30:06;0.20;;;0.20;;
18224;SDS011;9237;48.590;8.854;2023-08-17T11:32:35;0.20;;;0.20;;
18224;SDS011;9237;48.590;8.854;2023-08-17T11:35:02;0.20;;;0.20;;
18224;SDS011;9237;48.590;8.854;2023-08-17T11:37:29;0.20;;;0.20;;
18224;SDS011;9237;48.590;8.854;2023-08-17T11:39:56;0.20;;;0.20;;
18224;SDS011;9237;48.590;8.854;2023-08-17T11:42:23;0.20;;;0.20;;
18224;SDS011;9237;48.590;8.854;2023-08-17T11:44:51;0.20;;;0.20;;
18224;SDS011;9237;48.590;8.854;2023-08-17T11:47:18;0.20;;;0.20;;
18224;SDS011;9237;48.590;8.854;2023-08-17T11:49:48;0.20;;;0.20;;
18224;SDS011;9237;48.590;8.854;2023-08-17T11:52:15;0.20;;;0.20;;
18224;SDS011;9237;48.590;8.854;2023-08-17T11:54:42;0.20;;;0.20;;
18224;SDS011;9237;48.590;8.854;2023-08-17T11:57:08;0.20;;;0.20;;
18224;SDS011;9237;48.590;8.854;2023-08-17T11:59:35;0.20;;;0.20;;
18224;SDS011;9237;48.590;8.854;2023-08-17T12:02:02;0.20;;;0.20;;
18224;SDS011;9237;48.590;8.854;2023-08-17T12:04:29;0.30;;;0.30;;
18224;SDS011;9237;48.590;8.854;2023-08-17T12:06:59;0.20;;;0.20;;
18224;SDS011;9237;48.590;8.854;2023-08-17T12:09:26;0.30;;;0.30;;
18224;SDS011;9237;48.590;8.854;2023-08-17T12:11:57;0.30;;;0.30;;
18224;SDS011;9237;48.590;8.854;2023-08-17T12:14:26;0.30;;;0.30;;
18224;SDS011;9237;48.590;8.854;2023-08-17T12:16:53;0.30;;;0.30;;
18224;SDS011;9237;48.590;8.854;2023-08-17T12:19:20;0.30;;;0.30;;
18224;SDS011;9237;48.590;8.854;2023-08-17T12:21:47;0.30;;;0.30;;
18224;SDS011;9237;48.590;8.854;2023-08-17T12:24:16;0.35;;;0.35;;
18224;SDS011;9237;48.590;8.854;2023-08-17T12:26:44;0.30;;;0.30;;
18224;SDS011;9237;48.590;8.854;2023-08-17T12:29:12;0.30;;;0.30;;
18224;SDS011;9237;48.590;8.854;2023-08-17T12:31:39;0.30;;;0.30;;
18224;SDS011;9237;48.590;8.854;2023-08-17T12:34:07;0.30;;;0.30;;
18224;SDS011;9237;48.590;8.854;2023-08-17T12:36:33;0.30;;;0.30;;
18224;SDS011;9237;48.590;8.854;2023-08-17T12:39:02;0.30;;;0.30;;
18224;SDS011;9237;48.590;8.854;2023-08-17T12:41:32;0.30;;;0.30;;
18224;SDS011;9237;48.590;8.854;2023-08-17T12:43:58;0.40;;;0.40;;
18224;SDS011;9237;48.590;8.854;2023-08-17T12:46:26;0.30;;;0.30;;
18224;SDS011;9237;48.590;8.854;2023-08-17T12:48:57;0.40;;;0.40;;
18224;SDS011;9237;48.590;8.854;2023-08-17T12:51:24;0.40;;;0.40;;
18224;SDS011;9237;48.590;8.854;2023-08-17T12:53:51;0.40;;;0.40;;
18224;SDS011;9237;48.590;8.854;2023-08-17T12:56:18;0.40;;;0.40;;
18224;SDS011;9237;48.590;8.854;2023-08-17T12:58:46;0.40;;;0.40;;
18224;SDS011;9237;48.590;8.854;2023-08-17T13:01:13;0.40;;;0.40;;
18224;SDS011;9237;48.590;8.854;2023-08-17T13:03:39;0.40;;;0.40;;
18224;SDS011;9237;48.590;8.854;2023-08-17T13:06:07;0.40;;;0.40;;
18224;SDS011;9237;48.590;8.854;2023-08-17T13:08:34;0.40;;;0.40;;
18224;SDS011;9237;48.590;8.854;2023-08-17T13:11:00;0.40;;;0.40;;
18224;SDS011;9237;48.590;8.854;2023-08-17T13:13:27;0.40;;;0.40;;
18224;SDS011;9237;48.590;8.854;2023-08-17T13:15:55;0.47;;;0.47;;
18224;SDS011;9237;48.590;8.854;2023-08-17T13:18:22;0.40;;;0.40;;
18224;SDS011;9237;48.590;8.854;2023-08-17T13:20:49;0.40;;;0.40;;
18224;SDS011;9237;48.590;8.854;2023-08-17T13:23:16;0.40;;;0.40;;
18224;SDS011;9237;48.590;8.854;2023-08-17T13:25:42;0.40;;;0.40;;
18224;SDS011;9237;48.590;8.854;2023-08-17T13:28:09;0.40;;;0.40;;
18224;SDS011;9237;48.590;8.854;2023-08-17T13:30:37;0.40;;;0.40;;
18224;SDS011;9237;48.590;8.854;2023-08-17T13:33:06;0.40;;;0.40;;
18224;SDS011;9237;48.590;8.854;2023-08-17T13:35:33;0.40;;;0.40;;
18224;SDS011;9237;48.590;8.854;2023-08-17T13:37:59;0.40;;;0.40;;
18224;SDS011;9237;48.590;8.854;2023-08-17T13:40:29;0.40;;;0.40;;
18224;SDS011;9237;48.590;8.854;2023-08-17T13:42:55;0.40;;;0.40;;
18224;SDS011;9237;48.590;8.854;2023-08-17T13:45:23;0.50;;;0.50;;
18224;SDS011;9237;48.590;8.854;2023-08-17T13:47:50;0.50;;;0.50;;
18224;SDS011;9237;48.590;8.854;2023-08-17T13:50:18;0.50;;;0.50;;
18224;SDS011;9237;48.590;8.854;2023-08-17T13:52:45;0.40;;;0.40;;
18224;SDS011;9237;48.590;8.854;2023-08-17T13:55:12;0.40;;;0.40;;
18224;SDS011;9237;48.590;8.854;2023-08-17T13:57:39;0.40;;;0.40;;
18224;SDS011;9237;48.590;8.854;2023-08-17T14:00:06;0.40;;;0.40;;
18224;SDS011;9237;48.590;8.854;2023-08-17T14:02:34;0.50;;;0.50;;
18224;SDS011;9237;48.590;8.854;2023-08-17T14:05:01;0.50;;;0.50;;
18224;SDS011;9237;48.590;8.854;2023-08-17T14:07:29;0.50;;;0.50;;
18224;SDS011;9237;48.590;8.854;2023-08-17T14:09:56;0.40;;;0.40;;
18224;SDS011;9237;48.590;8.854;2023-08-17T14:12:23;0.40;;;0.40;;
18224;SDS011;9237;48.590;8.854;2023-08-17T14:14:49;0.40;;;0.40;;
18224;SDS011;9237;48.590;8.854;2023-08-17T14:17:16;0.40;;;0.40;;
18224;SDS011;9237;48.590;8.854;2023-08-17T14:19:43;0.40;;;0.40;;
18224;SDS011;9237;48.590;8.854;2023-08-17T14:22:10;0.40;;;0.40;;
18224;SDS011;9237;48.590;8.854;2023-08-17T14:24:38;0.40;;;0.40;;
18224;SDS011;9237;48.590;8.854;2023-08-17T14:27:04;0.40;;;0.40;;
18224;SDS011;9237;48.590;8.854;2023-08-17T14:29:31;0.35;;;0.35;;
18224;SDS011;9237;48.590;8.854;2023-08-17T14:31:58;0.35;;;0.35;;
18224;SDS011;9237;48.590;8.854;2023-08-17T14:34:25;0.35;;;0.35;;
18224;SDS011;9237;48.590;8.854;2023-08-17T14:36:51;0.30;;;0.30;;
18224;SDS011;9237;48.590;8.854;2023-08-17T14:39:18;0.30;;;0.30;;
18224;SDS011;9237;48.590;8.854;2023-08-17T14:41:46;0.30;;;0.30;;
18224;SDS011;9237;48.590;8.854;2023-08-17T14:44:13;0.30;;;0.30;;
18224;SDS011;9237;48.590;8.854;2023-08-17T14:46:42;0.30;;;0.30;;
18224;SDS011;9237;48.590;8.854;2023-08-17T14:49:09;0.30;;;0.30;;
18224;SDS011;9237;48.590;8.854;2023-08-17T14:51:39;0.30;;;0.30;;
18224;SDS011;9237;48.590;8.854;2023-08-17T14:54:07;0.30;;;0.30;;
18224;SDS011;9237;48.590;8.854;2023-08-17T14:56:35;0.30;;;0.30;;
18224;SDS011;9237;48.590;8.854;2023-08-17T14:59:03;0.25;;;0.25;;
18224;SDS011;9237;48.590;8.854;2023-08-17T15:01:30;0.35;;;0.35;;
18224;SDS011;9237;48.590;8.854;2023-08-17T15:03:57;0.30;;;0.30;;